createdAt,value
2023-04-10T00:01:35.735Z,6.45
2023-04-10T00:04:03.877Z,6.78
2023-04-10T00:06:32.012Z,6.53
2023-04-10T00:08:59.913Z,6.53
2023-04-10T00:11:27.973Z,7.40
2023-04-10T00:13:57.439Z,7.45
2023-04-10T00:16:25.310Z,7.30
2023-04-10T00:18:53.099Z,7.38
2023-04-10T00:21:20.800Z,7.35
2023-04-10T00:23:48.503Z,7.60
2023-04-10T00:26:16.238Z,7.25
2023-04-10T00:28:43.960Z,7.50
2023-04-10T00:31:13.189Z,7.80
2023-04-10T00:33:40.968Z,7.95
2023-04-10T00:36:09.044Z,7.32
2023-04-10T00:38:37.945Z,8.10
2023-04-10T00:41:06.409Z,7.80
2023-04-10T00:43:34.229Z,8.45
2023-04-10T00:46:02.217Z,9.70
2023-04-10T00:48:31.476Z,8.30
2023-04-10T00:50:59.636Z,8.45
2023-04-10T00:53:27.643Z,7.70
2023-04-10T00:55:56.782Z,8.20
2023-04-10T00:58:24.533Z,8.50
2023-04-10T01:00:53.011Z,9.30
2023-04-10T01:03:22.728Z,8.60
2023-04-10T01:05:58.906Z,8.60
2023-04-10T01:08:40.754Z,9.77
2023-04-10T01:11:13.068Z,9.50
2023-04-10T01:13:46.434Z,9.07
2023-04-10T01:16:20.383Z,9.00
2023-04-10T01:18:55.152Z,8.65
2023-04-10T01:21:25.148Z,9.10
2023-04-10T01:24:09.026Z,8.77
2023-04-10T01:26:54.307Z,9.50
2023-04-10T01:29:28.012Z,9.55
2023-04-10T01:32:01.920Z,9.25
2023-04-10T01:34:37.019Z,9.25
2023-04-10T01:37:09.508Z,9.98
2023-04-10T01:39:42.631Z,9.27
2023-04-10T01:42:12.841Z,8.85
2023-04-10T01:44:43.681Z,10.63
2023-04-10T01:47:11.413Z,9.65
2023-04-10T01:49:44.494Z,9.38
2023-04-10T01:52:13.010Z,8.93
2023-04-10T01:54:41.351Z,9.20
2023-04-10T01:57:10.236Z,9.27
2023-04-10T01:59:39.001Z,10.10
2023-04-10T02:02:08.609Z,10.00
2023-04-10T02:04:36.507Z,10.60
2023-04-10T02:07:05.642Z,10.27
2023-04-10T02:09:45.289Z,10.32
2023-04-10T02:12:19.594Z,9.60
2023-04-10T02:14:48.698Z,9.93
2023-04-10T02:17:22.376Z,9.52
2023-04-10T02:19:52.512Z,9.70
2023-04-10T02:22:20.538Z,9.98
2023-04-10T02:24:48.547Z,10.60
2023-04-10T02:27:16.570Z,10.23
2023-04-10T02:29:44.353Z,10.18
2023-04-10T02:32:12.138Z,9.60
2023-04-10T02:34:44.163Z,8.95
2023-04-10T02:37:11.955Z,10.05
2023-04-10T02:39:39.651Z,9.48
2023-04-10T02:42:07.676Z,11.32
2023-04-10T02:44:35.631Z,11.15
2023-04-10T02:47:03.559Z,10.10
2023-04-10T02:49:31.644Z,10.25
2023-04-10T02:52:00.698Z,11.00
2023-04-10T02:54:28.649Z,10.48
2023-04-10T02:56:57.385Z,11.13
2023-04-10T02:59:25.643Z,11.10
2023-04-10T03:01:53.452Z,11.25
2023-04-10T03:04:21.381Z,11.68
2023-04-10T03:06:49.595Z,11.98
2023-04-10T03:09:18.677Z,11.45
2023-04-10T03:11:46.769Z,11.85
2023-04-10T03:14:14.820Z,10.30
2023-04-10T03:16:42.602Z,11.63
2023-04-10T03:19:10.458Z,10.68
2023-04-10T03:21:38.414Z,11.43
2023-04-10T03:24:06.759Z,11.63
2023-04-10T03:26:36.000Z,11.55
2023-04-10T03:29:03.793Z,11.25
2023-04-10T03:31:31.881Z,11.15
2023-04-10T03:34:00.000Z,11.10
2023-04-10T03:36:28.000Z,11.65
2023-04-10T03:38:55.859Z,11.35
2023-04-10T03:41:25.452Z,11.75
2023-04-10T03:43:55.133Z,11.52
2023-04-10T03:46:23.189Z,13.18
2023-04-10T03:48:52.861Z,12.00
2023-04-10T03:51:21.317Z,11.80
2023-04-10T03:53:49.050Z,11.55
2023-04-10T03:56:17.475Z,12.60
2023-04-10T03:58:45.248Z,10.55
2023-04-10T04:01:14.790Z,11.18
2023-04-10T04:03:43.183Z,11.80
2023-04-10T04:06:11.207Z,12.57
2023-04-10T04:08:39.341Z,12.88
2023-04-10T04:11:07.645Z,12.15
2023-04-10T04:13:35.919Z,10.93
2023-04-10T04:16:03.704Z,11.25
2023-04-10T04:18:33.072Z,11.82
2023-04-10T04:21:00.787Z,12.88
2023-04-10T04:23:28.604Z,12.10
2023-04-10T04:25:58.595Z,12.13
2023-04-10T04:28:27.530Z,11.65
2023-04-10T04:30:56.682Z,11.68
2023-04-10T04:33:24.483Z,10.27
2023-04-10T04:35:53.686Z,10.35
2023-04-10T04:38:21.444Z,10.77
2023-04-10T04:40:49.191Z,10.55
2023-04-10T04:43:16.998Z,10.85
2023-04-10T04:45:45.047Z,11.43
2023-04-10T04:48:12.841Z,10.40
2023-04-10T04:50:41.517Z,10.35
2023-04-10T04:53:11.288Z,11.23
2023-04-10T04:55:39.436Z,10.75
2023-04-10T04:58:07.172Z,11.10
2023-04-10T05:00:34.953Z,12.63
2023-04-10T05:03:02.979Z,12.25
2023-04-10T05:05:30.965Z,11.70
2023-04-10T05:07:58.694Z,11.75
2023-04-10T05:10:27.963Z,11.70
2023-04-10T05:12:55.695Z,12.40
2023-04-10T05:15:24.053Z,11.98
2023-04-10T05:17:53.159Z,11.32
2023-04-10T05:20:22.166Z,12.25
2023-04-10T05:22:53.054Z,11.50
2023-04-10T05:25:21.286Z,12.15
2023-04-10T05:27:50.677Z,12.85
2023-04-10T05:30:18.577Z,12.77
2023-04-10T05:32:46.985Z,12.40
2023-04-10T05:35:14.860Z,11.73
2023-04-10T05:37:42.610Z,11.73
2023-04-10T05:40:11.516Z,11.90
2023-04-10T05:42:39.259Z,11.88
2023-04-10T05:45:09.507Z,11.25
2023-04-10T05:47:37.358Z,21.58
2023-04-10T05:50:05.698Z,21.77
2023-04-10T05:52:33.770Z,16.30
2023-04-10T05:55:01.808Z,21.83
2023-04-10T05:57:30.819Z,16.45
2023-04-10T05:59:58.545Z,11.40
2023-04-10T06:02:28.151Z,10.82
2023-04-10T06:04:56.347Z,10.32
2023-04-10T06:07:24.406Z,11.15
2023-04-10T06:09:52.152Z,10.85
2023-04-10T06:12:19.875Z,10.40
2023-04-10T06:14:48.517Z,16.35
2023-04-10T06:17:16.282Z,11.60
2023-04-10T06:19:45.755Z,10.35
2023-04-10T06:22:13.502Z,10.02
2023-04-10T06:24:41.372Z,10.73
2023-04-10T06:27:09.270Z,10.27
2023-04-10T06:29:37.486Z,10.13
2023-04-10T06:32:05.328Z,9.02
2023-04-10T06:34:33.072Z,10.43
2023-04-10T06:37:02.200Z,20.23
2023-04-10T06:39:31.304Z,11.50
2023-04-10T06:41:59.368Z,10.13
2023-04-10T06:44:27.478Z,10.50
2023-04-10T06:46:55.489Z,10.15
2023-04-10T06:49:24.243Z,10.52
2023-04-10T06:51:52.082Z,10.82
2023-04-10T06:54:21.701Z,9.85
2023-04-10T06:56:49.607Z,10.07
2023-04-10T06:59:17.715Z,10.10
2023-04-10T07:01:45.778Z,9.13
2023-04-10T07:04:13.814Z,9.57
2023-04-10T07:06:41.933Z,8.60
2023-04-10T07:09:09.651Z,12.77
2023-04-10T07:11:40.331Z,12.48
2023-04-10T07:14:08.121Z,8.15
2023-04-10T07:16:36.224Z,8.30
2023-04-10T07:19:06.690Z,8.27
2023-04-10T07:21:34.610Z,8.25
2023-04-10T07:24:02.732Z,8.23
2023-04-10T07:26:30.562Z,9.05
2023-04-10T07:29:00.022Z,8.07
2023-04-10T07:31:28.005Z,7.78
2023-04-10T07:33:55.888Z,7.60
2023-04-10T07:36:23.716Z,9.13
2023-04-10T07:38:51.500Z,8.00
2023-04-10T07:41:19.300Z,8.15
2023-04-10T07:43:47.821Z,8.45
2023-04-10T07:46:17.766Z,7.63
2023-04-10T07:48:47.187Z,7.68
2023-04-10T07:51:14.912Z,6.82
2023-04-10T07:53:43.004Z,7.55
2023-04-10T07:56:17.245Z,6.75
2023-04-10T07:58:45.075Z,7.00
2023-04-10T08:01:13.455Z,6.97
2023-04-10T08:03:43.838Z,6.15
2023-04-10T08:06:12.892Z,6.07
2023-04-10T08:08:42.198Z,6.10
2023-04-10T08:11:24.796Z,5.18
2023-04-10T08:13:52.837Z,8.18
2023-04-10T08:16:24.055Z,5.40
2023-04-10T08:18:53.725Z,5.10
2023-04-10T08:21:23.349Z,5.03
2023-04-10T08:23:52.001Z,4.75
2023-04-10T08:26:21.248Z,4.82
2023-04-10T08:28:50.974Z,5.00
2023-04-10T08:31:19.173Z,5.03
2023-04-10T08:33:47.572Z,4.68
2023-04-10T08:36:19.818Z,4.65
2023-04-10T08:38:49.197Z,4.93
2023-04-10T08:41:19.292Z,4.47
2023-04-10T08:43:47.186Z,4.03
2023-04-10T08:46:15.529Z,4.13
2023-04-10T08:48:48.987Z,6.28
2023-04-10T08:51:26.023Z,5.40
2023-04-10T08:53:59.610Z,4.38
2023-04-10T08:56:28.442Z,4.07
2023-04-10T08:58:56.716Z,4.38
2023-04-10T09:01:25.588Z,4.53
2023-04-10T09:03:53.595Z,4.35
2023-04-10T09:06:23.077Z,4.47
2023-04-10T09:08:50.761Z,4.28
2023-04-10T09:11:18.518Z,4.50
2023-04-10T09:13:46.481Z,4.15
2023-04-10T09:16:15.984Z,4.38
2023-04-10T09:18:45.926Z,4.32
2023-04-10T09:21:15.758Z,4.30
2023-04-10T09:23:46.412Z,4.40
2023-04-10T09:26:25.348Z,4.00
2023-04-10T09:29:04.115Z,4.47
2023-04-10T09:31:34.523Z,4.13
2023-04-10T09:34:10.692Z,4.22
2023-04-10T09:36:38.958Z,4.05
2023-04-10T09:39:09.321Z,4.00
2023-04-10T09:41:47.709Z,4.20
2023-04-10T09:44:15.531Z,4.53
2023-04-10T09:46:43.693Z,7.07
2023-04-10T09:49:12.644Z,4.68
2023-04-10T09:51:40.596Z,3.67
2023-04-10T09:54:09.815Z,3.72
2023-04-10T09:56:40.766Z,3.83
2023-04-10T09:59:09.486Z,3.40
2023-04-10T10:01:41.186Z,3.85
2023-04-10T10:06:40.269Z,3.22
2023-04-10T10:09:10.034Z,3.87
2023-04-10T10:11:37.910Z,3.42
2023-04-10T10:14:13.607Z,2.90
2023-04-10T10:16:47.333Z,3.45
2023-04-10T10:19:21.177Z,6.45
2023-04-10T10:21:49.850Z,2.85
2023-04-10T10:24:21.272Z,3.25
2023-04-10T10:26:49.956Z,3.17
2023-04-10T10:29:18.834Z,3.40
2023-04-10T10:31:48.233Z,3.20
2023-04-10T10:34:17.209Z,3.58
2023-04-10T10:36:44.966Z,3.30
2023-04-10T10:39:30.381Z,3.40
2023-04-10T10:42:07.507Z,3.03
2023-04-10T10:44:46.792Z,3.20
2023-04-10T10:47:19.046Z,2.90
2023-04-10T10:49:54.433Z,2.70
2023-04-10T10:52:41.946Z,12.70
2023-04-10T10:55:35.792Z,3.65
2023-04-10T10:58:06.152Z,3.70
2023-04-10T11:01:13.439Z,3.55
2023-04-10T11:03:41.856Z,3.42
2023-04-10T11:06:12.643Z,2.90
2023-04-10T11:08:46.037Z,3.55
2023-04-10T11:11:20.277Z,3.70
2023-04-10T11:14:18.388Z,3.63
2023-04-10T11:16:48.143Z,3.60
2023-04-10T11:19:19.275Z,3.67
2023-04-10T11:22:07.527Z,3.30
2023-04-10T11:24:59.066Z,3.33
2023-04-10T11:27:49.107Z,3.65
2023-04-10T11:30:31.156Z,3.47
2023-04-10T11:33:00.572Z,3.55
2023-04-10T11:35:29.174Z,3.50
2023-04-10T11:38:13.514Z,3.88
2023-04-10T11:40:58.578Z,4.15
2023-04-10T11:43:27.874Z,4.05
2023-04-10T11:46:03.628Z,3.70
2023-04-10T11:48:31.785Z,3.40
2023-04-10T11:51:01.658Z,3.55
2023-04-10T11:53:30.293Z,3.42
2023-04-10T11:55:58.711Z,3.88
2023-04-10T11:58:29.953Z,3.50
2023-04-10T12:06:01.669Z,3.13
2023-04-10T12:08:32.999Z,3.53
2023-04-10T12:13:31.184Z,3.17
2023-04-10T12:16:00.480Z,2.80
2023-04-10T12:18:29.138Z,3.65
2023-04-10T12:20:57.749Z,3.30
2023-04-10T12:23:26.198Z,4.03
2023-04-10T12:26:06.712Z,3.40
2023-04-10T12:28:36.887Z,3.50
2023-04-10T12:31:05.232Z,3.60
2023-04-10T12:33:33.252Z,3.60
2023-04-10T12:36:01.581Z,4.15
2023-04-10T12:38:43.944Z,3.38
2023-04-10T12:41:12.762Z,4.00
2023-04-10T12:43:44.859Z,4.22
2023-04-10T12:46:24.862Z,3.25
2023-04-10T12:48:53.027Z,3.72
2023-04-10T12:51:20.977Z,3.55
2023-04-10T12:53:48.859Z,3.60
2023-04-10T12:56:18.234Z,3.65
2023-04-10T12:58:47.904Z,3.70
2023-04-10T13:01:15.733Z,4.28
2023-04-10T13:03:43.718Z,4.65
2023-04-10T13:06:11.629Z,5.03
2023-04-10T13:08:39.380Z,4.40
2023-04-10T13:11:07.379Z,4.05
2023-04-10T13:13:35.555Z,4.07
2023-04-10T13:16:04.829Z,5.47
2023-04-10T13:18:32.691Z,4.25
2023-04-10T13:21:00.541Z,4.03
2023-04-10T13:23:28.395Z,3.85
2023-04-10T13:25:56.813Z,3.90
2023-04-10T13:28:24.699Z,3.85
2023-04-10T13:30:52.504Z,3.55
2023-04-10T13:33:22.195Z,3.40
2023-04-10T13:35:50.004Z,3.85
2023-04-10T13:38:19.830Z,4.55
2023-04-10T13:40:48.520Z,3.28
2023-04-10T13:43:16.345Z,3.50
2023-04-10T13:45:44.113Z,3.90
2023-04-10T13:48:11.914Z,3.38
2023-04-10T13:50:41.139Z,3.15
2023-04-10T13:53:10.301Z,3.55
2023-04-10T13:55:38.936Z,6.70
2023-04-10T13:58:07.429Z,3.78
2023-04-10T14:00:35.280Z,3.35
2023-04-10T14:03:03.675Z,3.30
2023-04-10T14:05:31.612Z,3.15
2023-04-10T14:08:01.097Z,2.00
2023-04-10T14:10:29.272Z,1.80
2023-04-10T14:12:57.405Z,2.15
2023-04-10T14:15:25.239Z,1.60
2023-04-10T14:17:52.978Z,1.80
2023-04-10T14:20:21.066Z,1.85
2023-04-10T14:22:49.425Z,1.50
2023-04-10T14:25:18.866Z,1.70
2023-04-10T14:27:46.995Z,1.90
2023-04-10T14:30:14.914Z,2.13
2023-04-10T14:32:43.868Z,1.60
2023-04-10T14:35:12.197Z,4.95
2023-04-10T14:37:40.108Z,2.45
2023-04-10T14:40:09.085Z,2.03
2023-04-10T14:42:38.175Z,2.20
2023-04-10T14:45:06.640Z,2.50
2023-04-10T14:47:35.993Z,2.10
2023-04-10T14:50:04.072Z,2.10
2023-04-10T14:52:31.831Z,2.72
2023-04-10T14:54:59.794Z,2.00
2023-04-10T14:57:29.829Z,2.25
2023-04-10T15:00:01.232Z,2.00
2023-04-10T15:02:30.141Z,1.75
2023-04-10T15:04:58.028Z,2.33
2023-04-10T15:07:27.622Z,2.05
2023-04-10T15:09:57.873Z,2.22
2023-04-10T15:12:25.846Z,1.70
2023-04-10T15:14:53.948Z,1.70
2023-04-10T15:17:24.666Z,2.20
2023-04-10T15:19:52.549Z,1.80
2023-04-10T15:22:20.387Z,1.90
2023-04-10T15:24:50.788Z,1.70
2023-04-10T15:27:21.249Z,2.08
2023-04-10T15:29:49.667Z,1.70
2023-04-10T15:32:17.620Z,1.77
2023-04-10T15:34:46.742Z,1.88
2023-04-10T15:37:14.483Z,1.80
2023-04-10T15:39:42.343Z,1.30
2023-04-10T15:42:10.172Z,1.25
2023-04-10T15:44:37.914Z,1.40
2023-04-10T15:47:05.746Z,1.25
2023-04-10T15:49:37.636Z,1.50
2023-04-10T15:52:07.911Z,1.30
2023-04-10T15:54:35.781Z,1.30
2023-04-10T15:57:05.035Z,1.40
2023-04-10T15:59:33.827Z,1.80
2023-04-10T16:02:01.682Z,1.90
2023-04-10T16:04:30.066Z,1.60
2023-04-10T16:06:58.096Z,1.50
2023-04-10T16:09:27.344Z,2.10
2023-04-10T16:11:56.099Z,2.03
2023-04-10T16:14:24.072Z,1.88
2023-04-10T16:16:51.999Z,1.85
2023-04-10T16:19:19.845Z,1.80
2023-04-10T16:21:47.586Z,7.00
2023-04-10T16:24:15.484Z,2.20
2023-04-10T16:26:44.643Z,2.22
2023-04-10T16:29:12.411Z,2.30
2023-04-10T16:31:40.367Z,2.17
2023-04-10T16:34:08.525Z,2.15
2023-04-10T16:36:36.331Z,2.70
2023-04-10T16:39:04.343Z,1.70
2023-04-10T16:41:32.270Z,2.17
2023-04-10T16:44:01.355Z,2.08
2023-04-10T16:46:29.201Z,2.10
2023-04-10T16:48:57.352Z,1.90
2023-04-10T16:51:25.647Z,1.85
2023-04-10T16:53:53.631Z,1.80
2023-04-10T16:56:21.468Z,1.70
2023-04-10T16:58:49.526Z,1.70
2023-04-10T17:01:21.068Z,1.75
2023-04-10T17:03:49.342Z,1.98
2023-04-10T17:06:17.551Z,1.83
2023-04-10T17:08:45.644Z,1.85
2023-04-10T17:11:13.791Z,1.85
2023-04-10T17:13:42.130Z,1.85
2023-04-10T17:16:10.742Z,1.60
2023-04-10T17:18:39.929Z,1.58
2023-04-10T17:21:11.865Z,2.80
2023-04-10T17:23:39.761Z,1.52
2023-04-10T17:26:08.059Z,1.30
2023-04-10T17:28:35.958Z,1.70
2023-04-10T17:31:03.685Z,1.33
2023-04-10T17:33:31.528Z,1.40
2023-04-10T17:36:00.672Z,1.40
2023-04-10T17:38:28.560Z,1.40
2023-04-10T17:40:56.343Z,1.42
2023-04-10T17:43:24.096Z,1.50
2023-04-10T17:45:51.896Z,1.58
2023-04-10T17:48:19.778Z,1.40
2023-04-10T17:50:48.152Z,1.73
2023-04-10T17:53:17.282Z,1.58
2023-04-10T17:55:45.649Z,1.52
2023-04-10T17:58:13.458Z,1.50
2023-04-10T18:00:42.883Z,2.08
2023-04-10T18:03:11.109Z,2.03
2023-04-10T18:05:39.748Z,2.10
2023-04-10T18:08:08.745Z,1.75
2023-04-10T18:10:38.044Z,2.00
2023-04-10T18:13:05.749Z,1.80
2023-04-10T18:15:33.598Z,1.90
2023-04-10T18:18:01.392Z,1.90
2023-04-10T18:20:29.172Z,1.73
2023-04-10T18:22:57.040Z,1.85
2023-04-10T18:25:24.852Z,2.00
2023-04-10T18:28:13.074Z,2.13
2023-04-10T18:30:41.986Z,2.10
2023-04-10T18:33:11.253Z,1.77
2023-04-10T18:35:39.546Z,2.20
2023-04-10T18:38:07.539Z,1.88
2023-04-10T18:40:36.860Z,1.83
2023-04-10T18:43:06.368Z,2.47
2023-04-10T18:45:36.448Z,2.97
2023-04-10T18:48:04.377Z,2.30
2023-04-10T18:50:35.098Z,2.00
2023-04-10T18:53:05.990Z,2.38
2023-04-10T18:55:33.790Z,1.98
2023-04-10T18:58:01.579Z,2.08
2023-04-10T19:00:31.992Z,2.55
2023-04-10T19:03:00.122Z,2.08
2023-04-10T19:05:28.095Z,2.30
2023-04-10T19:08:03.744Z,2.42
2023-04-10T19:10:32.537Z,2.00
2023-04-10T19:13:00.539Z,2.20
2023-04-10T19:15:28.293Z,2.30
2023-04-10T19:17:57.555Z,2.70
2023-04-10T19:20:51.230Z,3.08
2023-04-10T19:23:13.194Z,1.95
2023-04-10T19:25:41.000Z,2.50
2023-04-10T19:28:08.751Z,2.83
2023-04-10T19:30:36.463Z,3.10
2023-04-10T19:33:05.728Z,2.55
2023-04-10T19:35:33.706Z,2.88
2023-04-10T19:38:01.532Z,8.75
2023-04-10T19:40:31.512Z,7.97
2023-04-10T19:43:00.495Z,3.03
2023-04-10T19:45:29.221Z,2.80
2023-04-10T19:47:57.766Z,2.60
2023-04-10T19:50:29.420Z,2.60
2023-04-10T19:52:57.221Z,3.08
2023-04-10T19:55:25.123Z,2.60
2023-04-10T19:57:52.913Z,3.17
2023-04-10T20:00:20.700Z,5.90
2023-04-10T20:02:48.524Z,2.97
2023-04-10T20:05:16.512Z,2.95
2023-04-10T20:07:46.060Z,3.17
2023-04-10T20:10:13.857Z,2.92
2023-04-10T20:12:41.634Z,2.80
2023-04-10T20:15:10.578Z,2.88
2023-04-10T20:17:39.048Z,3.03
2023-04-10T20:20:07.980Z,2.70
2023-04-10T20:22:35.733Z,2.50
2023-04-10T20:25:05.217Z,2.60
2023-04-10T20:27:32.982Z,2.70
2023-04-10T20:30:00.746Z,2.40
2023-04-10T20:32:28.593Z,2.33
2023-04-10T20:34:56.464Z,2.92
2023-04-10T20:37:24.217Z,17.23
2023-04-10T20:39:52.159Z,2.88
2023-04-10T20:42:23.304Z,2.97
2023-04-10T20:44:51.080Z,2.58
2023-04-10T20:47:20.327Z,2.13
2023-04-10T20:49:48.101Z,2.60
2023-04-10T20:52:15.899Z,2.53
2023-04-10T20:54:43.936Z,2.38
2023-04-10T20:57:12.135Z,2.78
2023-04-10T20:59:41.346Z,2.50
2023-04-10T21:02:14.482Z,2.38
2023-04-10T21:04:44.781Z,2.67
2023-04-10T21:07:13.119Z,2.10
2023-04-10T21:09:41.024Z,2.78
2023-04-10T21:12:08.960Z,2.28
2023-04-10T21:14:36.827Z,2.40
2023-04-10T21:17:06.094Z,2.42
2023-04-10T21:19:33.972Z,2.70
2023-04-10T21:22:01.805Z,2.67
2023-04-10T21:24:29.691Z,2.70
2023-04-10T21:26:57.541Z,2.95
2023-04-10T21:29:25.709Z,3.22
2023-04-10T21:31:53.544Z,2.55
2023-04-10T21:34:23.386Z,2.85
2023-04-10T21:36:51.210Z,3.03
2023-04-10T21:39:19.009Z,2.80
2023-04-10T21:41:46.731Z,2.58
2023-04-10T21:44:14.493Z,2.80
2023-04-10T21:46:42.555Z,2.60
2023-04-10T21:49:10.408Z,2.50
2023-04-10T21:51:40.443Z,2.83
2023-04-10T21:54:08.275Z,2.42
2023-04-10T21:56:38.591Z,2.45
2023-04-10T21:59:06.726Z,2.85
2023-04-10T22:01:34.779Z,2.78
2023-04-10T22:04:03.322Z,2.20
2023-04-10T22:06:31.531Z,2.15
2023-04-10T22:09:00.680Z,2.17
2023-04-10T22:11:28.538Z,2.13
2023-04-10T22:13:58.155Z,2.20
2023-04-10T22:16:28.223Z,2.40
2023-04-10T22:18:56.466Z,2.03
2023-04-10T22:21:25.126Z,2.10
2023-04-10T22:23:52.924Z,2.05
2023-04-10T22:26:22.197Z,1.85
2023-04-10T22:28:49.932Z,2.35
2023-04-10T22:31:18.295Z,1.80
2023-04-10T22:33:46.582Z,2.10
2023-04-10T22:36:14.425Z,1.80
2023-04-10T22:38:42.173Z,1.42
2023-04-10T22:41:10.858Z,1.27
2023-04-10T22:43:40.010Z,1.48
2023-04-10T22:46:08.334Z,1.60
2023-04-10T22:48:36.160Z,1.55
2023-04-10T22:51:04.295Z,1.50
2023-04-10T22:53:32.046Z,1.27
2023-04-10T22:55:59.880Z,1.50
2023-04-10T22:58:27.621Z,1.60
2023-04-10T23:00:56.762Z,1.33
2023-04-10T23:03:24.746Z,1.20
2023-04-10T23:05:52.766Z,1.35
2023-04-10T23:08:20.559Z,1.58
2023-04-10T23:10:48.399Z,1.90
2023-04-10T23:13:16.468Z,1.80
2023-04-10T23:15:50.034Z,1.40
2023-04-10T23:18:19.961Z,1.40
2023-04-10T23:20:47.868Z,1.33
2023-04-10T23:23:16.234Z,1.40
2023-04-10T23:25:44.026Z,1.20
2023-04-10T23:28:11.752Z,1.58
2023-04-10T23:30:42.086Z,7.07
2023-04-10T23:33:09.835Z,2.80
2023-04-10T23:35:38.965Z,1.83
2023-04-10T23:38:06.815Z,1.25
2023-04-10T23:40:34.725Z,1.30
2023-04-10T23:43:02.769Z,1.52
2023-04-10T23:45:30.589Z,1.40
2023-04-10T23:47:58.648Z,1.33
2023-04-10T23:50:27.428Z,1.20
2023-04-10T23:52:56.668Z,1.20
2023-04-10T23:55:24.461Z,1.30
2023-04-10T23:57:52.243Z,1.33
